ADDS TAF Board (Experimental) INFO Settings
IDs: Format: Expanded Condensed

KDTW - Detroit Metro/Wayne, MI, US

Issued at 0233 UTC 12 Feb 2016
Updated at: 0346 UTC 12 Feb 2016
Time0253Z 12/04Z 12/05Z 12/06Z 12/07Z 12/08Z 12/09Z 12/10Z 12/11Z 12/12Z 12/13Z 12/14Z 12/15Z 12/16Z
Type OBS PRVL PRVL PRVL PRVL PRVL PRVL PRVL PRVL PRVL PRVL PRVL PRVL PRVL
VIS 10 >6 >6 >6 >6 >6 >6 >6 >6 >6 >6 >6 >6 >6
CIG -- -- -- -- -- -- -- 80 80 80 80 80 40 40
Cover FEW SCT SCT SCT SCT SCT SCT BKN BKN BKN BKN BKN BKN BKN
FltCat VFR VFR VFR VFR VFR VFR VFR VFR VFR VFR VFR VFR VFR VFR
WX -- -- -- -- -- -- -- -- -- -- -- -- -- --
WDir 220 220 220 220 220 220 220 230 230 230 230 230 240 240
WSpd 7 6 6 6 6 6 6 6 6 6 6 6 12 12
WGst -- -- -- -- -- -- -- -- -- -- -- -- 20 20
R03/21
XWnd 1 1 1 1 1 1 1 2 2 2 2 2 6 6
XGst -- -- -- -- -- -- -- -- -- -- -- -- 10 10
HWnd -7 -6 -6 -6 -6 -6 -6 -6 -6 -6 -6 -6 -10 -10
HGst -- -- -- -- -- -- -- -- -- -- -- -- -17 -17
R04/22
XWnd 1 1 1 1 1 1 1 2 2 2 2 2 6 6
XGst -- -- -- -- -- -- -- -- -- -- -- -- 10 10
HWnd -7 -6 -6 -6 -6 -6 -6 -6 -6 -6 -6 -6 -10 -10
HGst -- -- -- -- -- -- -- -- -- -- -- -- -17 -17
R09/27
XWnd -5 -5 -5 -5 -5 -5 -5 -4 -4 -4 -4 -4 -6 -6
XGst -- -- -- -- -- -- -- -- -- -- -- -- -10 -10
HWnd -5 -4 -4 -4 -4 -4 -4 -5 -5 -5 -5 -5 -10 -10
HGst -- -- -- -- -- -- -- -- -- -- -- -- -17 -17

NOTE: TEMPO conditions in [brackets]. Keep in mind TEMPO conditions might be better (lower impact) than prevailing conditions.

Raw TAF
KDTW 120233Z 1203/1306 22006KT P6SM SCT040
  FM121000 23006KT P6SM BKN080
  FM121500 24012G20KT P6SM BKN040 BKN060
  FM121800 26014G26KT 4SM -SHSN SCT025 BKN040
  PROB30 1219/1221 2SM -SHSN BKN022 OVC035
  FM122100 30016G28KT P6SM -SHSN SCT028 BKN045
  PROB30 1221/1223 2SM -SHSN BKN028 OVC035
  FM130300 32013G22KT P6SM BKN045


Raw METAR
KDTW 120253Z 22007KT 10SM FEW040 M10/M16 A3025 RMK AO2 SLP255 T11001156 58001
KDTW 120153Z 20007KT 10SM FEW040 M09/M16 A3025 RMK AO2 SLP257 T10891156
KDTW 120053Z 19003KT 10SM FEW045 M08/M16 A3026 RMK AO2 SLP258 T10831156

METAR Board
Radar Display
Forecast Discussion

TAF Board Legend

Potential Impact
Threat None Slight Moderate High
Visibility (sm) ≥5.1 5.1>X≥3 3>X≥1 <1
Ceiling (100 ft) ≥30.1 30.1>X≥10 10>X≥5 <5
Wind Speed (kt) <10 10≤X<20 20≤X<30 ≥30
Wind Gust (kt) <15 15≤X<25 25≤X<35 ≥35
Weather No Wx Reported VCTS,-TS,-FZRA,SN TS,FZRA +TS,+FZRA,+SN